sensor_id;sensor_type;location;lat;lon;timestamp;temperature;humidity
71254;HTU21D;59019;47.638;18.966;2023-04-25T00:02:25;11.12;91.21
71254;HTU21D;59019;47.638;18.966;2023-04-25T00:04:51;11.13;91.14
71254;HTU21D;59019;47.638;18.966;2023-04-25T00:07:17;11.09;91.46
71254;HTU21D;59019;47.638;18.966;2023-04-25T00:09:43;11.11;92.14
71254;HTU21D;59019;47.638;18.966;2023-04-25T00:12:08;11.03;91.53
71254;HTU21D;59019;47.638;18.966;2023-04-25T00:14:34;11.03;92.37
71254;HTU21D;59019;47.638;18.966;2023-04-25T00:17:01;10.89;93.72
71254;HTU21D;59019;47.638;18.966;2023-04-25T00:19:26;10.96;92.23
71254;HTU21D;59019;47.638;18.966;2023-04-25T00:21:54;10.96;92.69
71254;HTU21D;59019;47.638;18.966;2023-04-25T00:24:20;11.01;92.88
71254;HTU21D;59019;47.638;18.966;2023-04-25T00:26:46;11.07;92.82
71254;HTU21D;59019;47.638;18.966;2023-04-25T00:29:12;10.92;92.63
71254;HTU21D;59019;47.638;18.966;2023-04-25T00:31:37;10.89;93.61
71254;HTU21D;59019;47.638;18.966;2023-04-25T00:34:03;10.81;93.46
71254;HTU21D;59019;47.638;18.966;2023-04-25T00:36:28;10.70;94.20
71254;HTU21D;59019;47.638;18.966;2023-04-25T00:38:54;10.71;93.36
71254;HTU21D;59019;47.638;18.966;2023-04-25T00:41:20;10.85;93.08
71254;HTU21D;59019;47.638;18.966;2023-04-25T00:43:46;10.81;93.31
71254;HTU21D;59019;47.638;18.966;2023-04-25T00:46:14;10.74;94.27
71254;HTU21D;59019;47.638;18.966;2023-04-25T00:48:41;10.67;94.30
71254;HTU21D;59019;47.638;18.966;2023-04-25T00:51:07;10.60;94.90
71254;HTU21D;59019;47.638;18.966;2023-04-25T00:53:34;10.77;93.36
71254;HTU21D;59019;47.638;18.966;2023-04-25T00:55:59;10.89;91.95
71254;HTU21D;59019;47.638;18.966;2023-04-25T00:58:25;10.87;91.59
71254;HTU21D;59019;47.638;18.966;2023-04-25T01:00:51;10.89;91.72
71254;HTU21D;59019;47.638;18.966;2023-04-25T01:03:17;11.02;90.82
71254;HTU21D;59019;47.638;18.966;2023-04-25T01:05:45;11.05;90.47
71254;HTU21D;59019;47.638;18.966;2023-04-25T01:08:10;11.07;90.42
71254;HTU21D;59019;47.638;18.966;2023-04-25T01:10:36;10.98;90.39
71254;HTU21D;59019;47.638;18.966;2023-04-25T01:13:02;10.88;91.57
71254;HTU21D;59019;47.638;18.966;2023-04-25T01:15:28;10.81;91.66
71254;HTU21D;59019;47.638;18.966;2023-04-25T01:17:54;10.74;91.91
71254;HTU21D;59019;47.638;18.966;2023-04-25T01:20:24;10.71;92.38
71254;HTU21D;59019;47.638;18.966;2023-04-25T01:22:50;10.72;92.43
71254;HTU21D;59019;47.638;18.966;2023-04-25T01:25:17;10.77;92.43
71254;HTU21D;59019;47.638;18.966;2023-04-25T01:27:43;10.69;92.86
71254;HTU21D;59019;47.638;18.966;2023-04-25T01:30:09;10.60;93.40
71254;HTU21D;59019;47.638;18.966;2023-04-25T01:32:35;10.71;93.17
71254;HTU21D;59019;47.638;18.966;2023-04-25T01:35:08;10.72;92.98
71254;HTU21D;59019;47.638;18.966;2023-04-25T01:37:46;10.70;93.01
71254;HTU21D;59019;47.638;18.966;2023-04-25T01:40:13;10.71;92.02
71254;HTU21D;59019;47.638;18.966;2023-04-25T01:42:40;10.71;92.32
71254;HTU21D;59019;47.638;18.966;2023-04-25T01:45:06;10.72;92.24
71254;HTU21D;59019;47.638;18.966;2023-04-25T01:47:33;10.80;91.86
71254;HTU21D;59019;47.638;18.966;2023-04-25T01:50:04;10.81;91.56
71254;HTU21D;59019;47.638;18.966;2023-04-25T01:52:30;10.84;91.18
71254;HTU21D;59019;47.638;18.966;2023-04-25T01:54:57;10.83;91.26
71254;HTU21D;59019;47.638;18.966;2023-04-25T01:57:24;10.68;91.47
71254;HTU21D;59019;47.638;18.966;2023-04-25T01:59:50;10.71;91.17
71254;HTU21D;59019;47.638;18.966;2023-04-25T02:02:16;10.74;90.97
71254;HTU21D;59019;47.638;18.966;2023-04-25T02:04:41;10.71;91.22
71254;HTU21D;59019;47.638;18.966;2023-04-25T02:07:07;10.65;91.41
71254;HTU21D;59019;47.638;18.966;2023-04-25T02:09:33;10.60;91.82
71254;HTU21D;59019;47.638;18.966;2023-04-25T02:11:58;10.58;91.83
71254;HTU21D;59019;47.638;18.966;2023-04-25T02:14:24;10.57;91.70
71254;HTU21D;59019;47.638;18.966;2023-04-25T02:16:49;10.53;92.08
71254;HTU21D;59019;47.638;18.966;2023-04-25T02:19:16;10.65;91.58
71254;HTU21D;59019;47.638;18.966;2023-04-25T02:21:42;10.58;91.12
71254;HTU21D;59019;47.638;18.966;2023-04-25T02:24:08;10.62;90.07
71254;HTU21D;59019;47.638;18.966;2023-04-25T02:26:33;10.65;89.95
71254;HTU21D;59019;47.638;18.966;2023-04-25T02:28:59;10.70;89.42
71254;HTU21D;59019;47.638;18.966;2023-04-25T02:31:25;10.71;88.59
71254;HTU21D;59019;47.638;18.966;2023-04-25T02:33:52;10.69;87.74
71254;HTU21D;59019;47.638;18.966;2023-04-25T02:36:17;10.62;87.48
71254;HTU21D;59019;47.638;18.966;2023-04-25T02:38:43;10.70;86.96
71254;HTU21D;59019;47.638;18.966;2023-04-25T02:41:09;10.66;87.33
71254;HTU21D;59019;47.638;18.966;2023-04-25T02:43:34;10.71;87.18
71254;HTU21D;59019;47.638;18.966;2023-04-25T02:46:00;10.79;86.52
71254;HTU21D;59019;47.638;18.966;2023-04-25T02:48:26;10.62;87.25
71254;HTU21D;59019;47.638;18.966;2023-04-25T02:50:52;10.59;87.64
71254;HTU21D;59019;47.638;18.966;2023-04-25T02:53:18;10.60;87.83
71254;HTU21D;59019;47.638;18.966;2023-04-25T02:55:43;10.59;88.15
71254;HTU21D;59019;47.638;18.966;2023-04-25T02:58:09;10.69;88.35
71254;HTU21D;59019;47.638;18.966;2023-04-25T03:00:35;10.60;88.68
71254;HTU21D;59019;47.638;18.966;2023-04-25T03:03:01;10.63;88.83
71254;HTU21D;59019;47.638;18.966;2023-04-25T03:05:27;10.54;89.38
71254;HTU21D;59019;47.638;18.966;2023-04-25T03:07:53;10.58;89.35
71254;HTU21D;59019;47.638;18.966;2023-04-25T03:10:18;10.57;89.15
71254;HTU21D;59019;47.638;18.966;2023-04-25T03:12:44;10.58;89.42
71254;HTU21D;59019;47.638;18.966;2023-04-25T03:15:10;10.65;89.15
71254;HTU21D;59019;47.638;18.966;2023-04-25T03:17:35;10.52;89.18
71254;HTU21D;59019;47.638;18.966;2023-04-25T03:20:01;10.41;89.77
71254;HTU21D;59019;47.638;18.966;2023-04-25T03:22:26;10.37;89.66
71254;HTU21D;59019;47.638;18.966;2023-04-25T03:24:52;10.35;89.77
71254;HTU21D;59019;47.638;18.966;2023-04-25T03:27:17;10.35;89.34
71254;HTU21D;59019;47.638;18.966;2023-04-25T03:29:43;10.35;89.78
71254;HTU21D;59019;47.638;18.966;2023-04-25T03:32:08;10.21;89.86
71254;HTU21D;59019;47.638;18.966;2023-04-25T03:34:34;10.25;89.83
71254;HTU21D;59019;47.638;18.966;2023-04-25T03:37:00;10.27;89.57
71254;HTU21D;59019;47.638;18.966;2023-04-25T03:39:26;10.29;89.52
71254;HTU21D;59019;47.638;18.966;2023-04-25T03:41:51;10.27;89.38
71254;HTU21D;59019;47.638;18.966;2023-04-25T03:44:17;10.24;89.07
71254;HTU21D;59019;47.638;18.966;2023-04-25T03:46:43;10.23;89.41
71254;HTU21D;59019;47.638;18.966;2023-04-25T03:49:08;10.15;89.57
71254;HTU21D;59019;47.638;18.966;2023-04-25T03:51:34;10.18;89.93
71254;HTU21D;59019;47.638;18.966;2023-04-25T03:53:59;10.11;89.84
71254;HTU21D;59019;47.638;18.966;2023-04-25T03:56:27;10.04;90.65
71254;HTU21D;59019;47.638;18.966;2023-04-25T03:58:53;9.97;90.78
71254;HTU21D;59019;47.638;18.966;2023-04-25T04:01:18;9.92;91.38
71254;HTU21D;59019;47.638;18.966;2023-04-25T04:03:44;10.06;91.22
71254;HTU21D;59019;47.638;18.966;2023-04-25T04:06:10;9.92;91.75
71254;HTU21D;59019;47.638;18.966;2023-04-25T04:08:36;9.89;92.29
71254;HTU21D;59019;47.638;18.966;2023-04-25T04:11:01;9.70;92.89
71254;HTU21D;59019;47.638;18.966;2023-04-25T04:13:29;9.78;93.55
71254;HTU21D;59019;47.638;18.966;2023-04-25T04:15:55;9.83;93.77
71254;HTU21D;59019;47.638;18.966;2023-04-25T04:18:21;9.76;95.02
71254;HTU21D;59019;47.638;18.966;2023-04-25T04:20:47;9.52;96.44
71254;HTU21D;59019;47.638;18.966;2023-04-25T04:23:13;9.49;96.56
71254;HTU21D;59019;47.638;18.966;2023-04-25T04:25:39;9.50;96.70
71254;HTU21D;59019;47.638;18.966;2023-04-25T04:28:05;9.51;97.36
71254;HTU21D;59019;47.638;18.966;2023-04-25T04:30:33;9.42;96.82
71254;HTU21D;59019;47.638;18.966;2023-04-25T04:33:01;9.49;96.66
71254;HTU21D;59019;47.638;18.966;2023-04-25T04:35:27;9.39;96.94
71254;HTU21D;59019;47.638;18.966;2023-04-25T04:37:53;9.40;97.11
71254;HTU21D;59019;47.638;18.966;2023-04-25T04:40:19;9.21;97.44
71254;HTU21D;59019;47.638;18.966;2023-04-25T04:42:45;9.18;98.56
71254;HTU21D;59019;47.638;18.966;2023-04-25T04:45:11;9.18;98.79
71254;HTU21D;59019;47.638;18.966;2023-04-25T04:47:38;9.06;98.39
71254;HTU21D;59019;47.638;18.966;2023-04-25T04:50:09;9.20;98.30
71254;HTU21D;59019;47.638;18.966;2023-04-25T04:52:38;9.22;97.58
71254;HTU21D;59019;47.638;18.966;2023-04-25T04:55:05;9.24;98.10
71254;HTU21D;59019;47.638;18.966;2023-04-25T04:57:31;9.27;97.62
71254;HTU21D;59019;47.638;18.966;2023-04-25T04:59:58;9.35;97.76
71254;HTU21D;59019;47.638;18.966;2023-04-25T05:02:23;9.36;98.56
71254;HTU21D;59019;47.638;18.966;2023-04-25T05:04:49;9.38;98.23
71254;HTU21D;59019;47.638;18.966;2023-04-25T05:07:16;9.53;98.04
71254;HTU21D;59019;47.638;18.966;2023-04-25T05:09:41;9.30;98.94
71254;HTU21D;59019;47.638;18.966;2023-04-25T05:12:07;9.27;100.35
71254;HTU21D;59019;47.638;18.966;2023-04-25T05:14:32;9.34;99.55
71254;HTU21D;59019;47.638;18.966;2023-04-25T05:16:58;9.30;99.23
71254;HTU21D;59019;47.638;18.966;2023-04-25T05:19:24;9.33;98.31
71254;HTU21D;59019;47.638;18.966;2023-04-25T05:21:49;9.15;98.25
71254;HTU21D;59019;47.638;18.966;2023-04-25T05:24:15;9.19;97.39
71254;HTU21D;59019;47.638;18.966;2023-04-25T05:26:41;9.11;97.21
71254;HTU21D;59019;47.638;18.966;2023-04-25T05:29:06;9.01;97.32
71254;HTU21D;59019;47.638;18.966;2023-04-25T05:31:33;9.00;97.64
71254;HTU21D;59019;47.638;18.966;2023-04-25T05:33:58;8.89;99.51
71254;HTU21D;59019;47.638;18.966;2023-04-25T05:36:24;8.87;99.37
71254;HTU21D;59019;47.638;18.966;2023-04-25T05:38:50;8.83;99.36
71254;HTU21D;59019;47.638;18.966;2023-04-25T05:41:16;8.79;99.67
71254;HTU21D;59019;47.638;18.966;2023-04-25T05:43:42;8.76;100.35
71254;HTU21D;59019;47.638;18.966;2023-04-25T05:46:12;8.73;99.87
71254;HTU21D;59019;47.638;18.966;2023-04-25T05:48:39;8.80;99.51
71254;HTU21D;59019;47.638;18.966;2023-04-25T05:51:05;8.85;100.48
71254;HTU21D;59019;47.638;18.966;2023-04-25T05:53:30;8.86;100.90
71254;HTU21D;59019;47.638;18.966;2023-04-25T05:55:56;8.73;101.43
71254;HTU21D;59019;47.638;18.966;2023-04-25T05:58:22;8.75;101.60
71254;HTU21D;59019;47.638;18.966;2023-04-25T06:00:47;8.72;102.49
71254;HTU21D;59019;47.638;18.966;2023-04-25T06:03:13;8.80;102.54
71254;HTU21D;59019;47.638;18.966;2023-04-25T06:05:42;8.78;102.96
71254;HTU21D;59019;47.638;18.966;2023-04-25T06:08:08;8.79;103.52
71254;HTU21D;59019;47.638;18.966;2023-04-25T06:10:34;8.83;104.63
71254;HTU21D;59019;47.638;18.966;2023-04-25T06:13:00;8.88;104.07
71254;HTU21D;59019;47.638;18.966;2023-04-25T06:15:25;8.82;104.67
71254;HTU21D;59019;47.638;18.966;2023-04-25T06:17:51;9.03;104.72
71254;HTU21D;59019;47.638;18.966;2023-04-25T06:20:16;8.97;105.82
71254;HTU21D;59019;47.638;18.966;2023-04-25T06:22:43;9.09;104.86
71254;HTU21D;59019;47.638;18.966;2023-04-25T06:25:08;9.18;104.34
71254;HTU21D;59019;47.638;18.966;2023-04-25T06:27:34;9.35;102.80
71254;HTU21D;59019;47.638;18.966;2023-04-25T06:30:02;9.29;103.99
71254;HTU21D;59019;47.638;18.966;2023-04-25T06:32:28;9.37;103.09
71254;HTU21D;59019;47.638;18.966;2023-04-25T06:34:55;9.40;101.65
71254;HTU21D;59019;47.638;18.966;2023-04-25T06:37:20;9.41;101.15
71254;HTU21D;59019;47.638;18.966;2023-04-25T06:39:46;9.57;100.81
71254;HTU21D;59019;47.638;18.966;2023-04-25T06:42:11;9.55;101.09
71254;HTU21D;59019;47.638;18.966;2023-04-25T06:44:37;9.60;101.13
71254;HTU21D;59019;47.638;18.966;2023-04-25T06:47:03;9.67;100.14
71254;HTU21D;59019;47.638;18.966;2023-04-25T06:49:29;9.77;100.24
71254;HTU21D;59019;47.638;18.966;2023-04-25T06:51:54;9.77;99.93
71254;HTU21D;59019;47.638;18.966;2023-04-25T06:54:20;9.81;100.29
71254;HTU21D;59019;47.638;18.966;2023-04-25T06:56:46;9.95;99.00
71254;HTU21D;59019;47.638;18.966;2023-04-25T06:59:11;10.01;99.38
71254;HTU21D;59019;47.638;18.966;2023-04-25T07:01:37;10.12;99.00
71254;HTU21D;59019;47.638;18.966;2023-04-25T07:04:02;10.25;98.13
71254;HTU21D;59019;47.638;18.966;2023-04-25T07:06:28;10.28;98.14
71254;HTU21D;59019;47.638;18.966;2023-04-25T07:08:54;10.40;97.52
71254;HTU21D;59019;47.638;18.966;2023-04-25T07:11:20;10.40;97.53
71254;HTU21D;59019;47.638;18.966;2023-04-25T07:13:46;10.50;97.61
71254;HTU21D;59019;47.638;18.966;2023-04-25T07:16:12;10.48;96.60
71254;HTU21D;59019;47.638;18.966;2023-04-25T07:18:38;10.80;96.08
71254;HTU21D;59019;47.638;18.966;2023-04-25T07:21:03;10.99;94.22
71254;HTU21D;59019;47.638;18.966;2023-04-25T07:23:30;10.90;94.36
71254;HTU21D;59019;47.638;18.966;2023-04-25T07:25:55;10.81;94.77
71254;HTU21D;59019;47.638;18.966;2023-04-25T07:28:21;10.88;95.05
71254;HTU21D;59019;47.638;18.966;2023-04-25T07:30:47;10.90;96.33
71254;HTU21D;59019;47.638;18.966;2023-04-25T07:33:13;10.88;95.56
71254;HTU21D;59019;47.638;18.966;2023-04-25T07:35:38;10.90;95.64
71254;HTU21D;59019;47.638;18.966;2023-04-25T07:38:05;11.05;95.72
71254;HTU21D;59019;47.638;18.966;2023-04-25T07:40:32;11.36;93.40
71254;HTU21D;59019;47.638;18.966;2023-04-25T07:42:57;11.60;93.15
71254;HTU21D;59019;47.638;18.966;2023-04-25T07:45:23;11.83;91.34
71254;HTU21D;59019;47.638;18.966;2023-04-25T07:47:49;11.78;91.31
71254;HTU21D;59019;47.638;18.966;2023-04-25T07:50:15;11.78;91.13
71254;HTU21D;59019;47.638;18.966;2023-04-25T07:52:40;12.30;91.16
71254;HTU21D;59019;47.638;18.966;2023-04-25T07:55:06;12.12;90.36
71254;HTU21D;59019;47.638;18.966;2023-04-25T07:57:32;12.57;88.78
71254;HTU21D;59019;47.638;18.966;2023-04-25T07:59:57;12.84;88.18
71254;HTU21D;59019;47.638;18.966;2023-04-25T08:02:24;13.07;87.06
71254;HTU21D;59019;47.638;18.966;2023-04-25T08:04:53;13.61;87.04
71254;HTU21D;59019;47.638;18.966;2023-04-25T08:07:19;14.05;85.04
71254;HTU21D;59019;47.638;18.966;2023-04-25T08:09:44;14.15;83.77
71254;HTU21D;59019;47.638;18.966;2023-04-25T08:12:10;14.57;82.14
71254;HTU21D;59019;47.638;18.966;2023-04-25T08:14:36;14.29;82.75
71254;HTU21D;59019;47.638;18.966;2023-04-25T08:17:03;14.42;80.69
71254;HTU21D;59019;47.638;18.966;2023-04-25T08:19:29;14.43;79.79
71254;HTU21D;59019;47.638;18.966;2023-04-25T08:21:56;14.21;81.49
71254;HTU21D;59019;47.638;18.966;2023-04-25T08:24:22;14.00;80.49
71254;HTU21D;59019;47.638;18.966;2023-04-25T08:26:48;13.77;81.58
71254;HTU21D;59019;47.638;18.966;2023-04-25T08:29:14;13.90;81.10
71254;HTU21D;59019;47.638;18.966;2023-04-25T08:31:41;13.68;80.75
71254;HTU21D;59019;47.638;18.966;2023-04-25T08:34:06;13.60;81.20
71254;HTU21D;59019;47.638;18.966;2023-04-25T08:36:32;13.54;81.81
71254;HTU21D;59019;47.638;18.966;2023-04-25T08:38:58;13.43;82.00
71254;HTU21D;59019;47.638;18.966;2023-04-25T08:41:25;13.30;81.66
71254;HTU21D;59019;47.638;18.966;2023-04-25T08:43:51;13.56;81.82
71254;HTU21D;59019;47.638;18.966;2023-04-25T08:46:19;13.48;82.32
71254;HTU21D;59019;47.638;18.966;2023-04-25T08:48:46;13.62;80.88
71254;HTU21D;59019;47.638;18.966;2023-04-25T08:51:22;13.50;80.77
71254;HTU21D;59019;47.638;18.966;2023-04-25T08:53:51;13.41;81.14
71254;HTU21D;59019;47.638;18.966;2023-04-25T08:56:18;13.75;80.09
71254;HTU21D;59019;47.638;18.966;2023-04-25T08:58:48;13.83;80.26
71254;HTU21D;59019;47.638;18.966;2023-04-25T09:01:13;13.66;80.33
71254;HTU21D;59019;47.638;18.966;2023-04-25T09:03:39;13.75;80.36
71254;HTU21D;59019;47.638;18.966;2023-04-25T09:06:05;14.13;79.91
71254;HTU21D;59019;47.638;18.966;2023-04-25T09:08:31;14.44;78.67
71254;HTU21D;59019;47.638;18.966;2023-04-25T09:10:56;14.13;78.49
71254;HTU21D;59019;47.638;18.966;2023-04-25T09:13:27;13.91;77.85
71254;HTU21D;59019;47.638;18.966;2023-04-25T09:16:11;13.97;78.17
71254;HTU21D;59019;47.638;18.966;2023-04-25T09:18:37;13.64;78.69
71254;HTU21D;59019;47.638;18.966;2023-04-25T09:21:09;13.03;80.98
71254;HTU21D;59019;47.638;18.966;2023-04-25T09:23:44;12.70;80.62
71254;HTU21D;59019;47.638;18.966;2023-04-25T09:26:14;12.89;80.96
71254;HTU21D;59019;47.638;18.966;2023-04-25T09:28:40;12.91;81.04
71254;HTU21D;59019;47.638;18.966;2023-04-25T09:31:10;12.99;80.47
71254;HTU21D;59019;47.638;18.966;2023-04-25T09:33:35;13.09;80.46
71254;HTU21D;59019;47.638;18.966;2023-04-25T09:36:09;13.10;79.97
71254;HTU21D;59019;47.638;18.966;2023-04-25T09:38:44;13.34;79.74
71254;HTU21D;59019;47.638;18.966;2023-04-25T09:41:10;13.00;79.71
71254;HTU21D;59019;47.638;18.966;2023-04-25T09:43:37;13.21;80.36
71254;HTU21D;59019;47.638;18.966;2023-04-25T09:46:08;13.59;79.71
71254;HTU21D;59019;47.638;18.966;2023-04-25T09:48:34;13.90;78.94
71254;HTU21D;59019;47.638;18.966;2023-04-25T09:51:10;14.19;78.72
71254;HTU21D;59019;47.638;18.966;2023-04-25T09:53:38;14.43;77.23
71254;HTU21D;59019;47.638;18.966;2023-04-25T09:56:05;14.67;75.25
71254;HTU21D;59019;47.638;18.966;2023-04-25T09:58:32;14.20;76.30
71254;HTU21D;59019;47.638;18.966;2023-04-25T10:01:00;14.30;75.71
71254;HTU21D;59019;47.638;18.966;2023-04-25T10:03:30;14.27;75.03
71254;HTU21D;59019;47.638;18.966;2023-04-25T10:05:58;14.33;75.00
71254;HTU21D;59019;47.638;18.966;2023-04-25T10:08:25;14.13;73.73
71254;HTU21D;59019;47.638;18.966;2023-04-25T10:10:52;14.00;74.44
71254;HTU21D;59019;47.638;18.966;2023-04-25T10:13:18;14.08;74.71
71254;HTU21D;59019;47.638;18.966;2023-04-25T10:15:44;14.21;73.87
71254;HTU21D;59019;47.638;18.966;2023-04-25T10:18:10;14.04;72.93
71254;HTU21D;59019;47.638;18.966;2023-04-25T10:20:37;14.20;73.42
71254;HTU21D;59019;47.638;18.966;2023-04-25T10:23:13;14.30;72.72
71254;HTU21D;59019;47.638;18.966;2023-04-25T10:25:40;14.37;73.14
71254;HTU21D;59019;47.638;18.966;2023-04-25T10:28:06;14.70;72.17
71254;HTU21D;59019;47.638;18.966;2023-04-25T10:30:32;14.65;71.96
71254;HTU21D;59019;47.638;18.966;2023-04-25T10:32:59;14.80;71.31
71254;HTU21D;59019;47.638;18.966;2023-04-25T10:35:27;14.86;70.98
71254;HTU21D;59019;47.638;18.966;2023-04-25T10:38:09;14.80;72.51
71254;HTU21D;59019;47.638;18.966;2023-04-25T10:40:35;14.72;72.43
71254;HTU21D;59019;47.638;18.966;2023-04-25T10:46:23;14.93;70.18
71254;HTU21D;59019;47.638;18.966;2023-04-25T10:48:57;15.37;68.87
71254;HTU21D;59019;47.638;18.966;2023-04-25T10:51:27;15.59;67.75
71254;HTU21D;59019;47.638;18.966;2023-04-25T10:56:30;15.83;66.15
71254;HTU21D;59019;47.638;18.966;2023-04-25T10:59:23;16.54;65.82
71254;HTU21D;59019;47.638;18.966;2023-04-25T11:01:52;16.82;64.92
71254;HTU21D;59019;47.638;18.966;2023-04-25T11:04:24;17.36;64.53
71254;HTU21D;59019;47.638;18.966;2023-04-25T11:09:33;17.85;62.63
71254;HTU21D;59019;47.638;18.966;2023-04-25T11:11:59;18.43;61.40
71254;HTU21D;59019;47.638;18.966;2023-04-25T11:14:30;17.90;59.95
71254;HTU21D;59019;47.638;18.966;2023-04-25T11:16:58;18.00;60.67
71254;HTU21D;59019;47.638;18.966;2023-04-25T11:19:25;17.67;60.82
71254;HTU21D;59019;47.638;18.966;2023-04-25T11:21:55;17.61;60.37
71254;HTU21D;59019;47.638;18.966;2023-04-25T11:24:28;17.74;61.41
71254;HTU21D;59019;47.638;18.966;2023-04-25T11:26:54;17.62;61.22
71254;HTU21D;59019;47.638;18.966;2023-04-25T11:29:27;17.79;60.12
71254;HTU21D;59019;47.638;18.966;2023-04-25T11:31:53;17.75;60.57
71254;HTU21D;59019;47.638;18.966;2023-04-25T11:34:21;17.47;58.90
71254;HTU21D;59019;47.638;18.966;2023-04-25T11:36:47;17.45;59.96
71254;HTU21D;59019;47.638;18.966;2023-04-25T11:39:13;17.51;60.70
71254;HTU21D;59019;47.638;18.966;2023-04-25T11:41:41;16.84;60.44
71254;HTU21D;59019;47.638;18.966;2023-04-25T11:44:07;17.01;60.98
71254;HTU21D;59019;47.638;18.966;2023-04-25T11:46:36;16.78;60.72
71254;HTU21D;59019;47.638;18.966;2023-04-25T11:49:02;16.55;61.45
71254;HTU21D;59019;47.638;18.966;2023-04-25T11:51:29;16.55;61.55
71254;HTU21D;59019;47.638;18.966;2023-04-25T11:53:56;16.79;60.85
71254;HTU21D;59019;47.638;18.966;2023-04-25T11:56:24;16.92;60.31
71254;HTU21D;59019;47.638;18.966;2023-04-25T11:58:56;16.96;60.25
71254;HTU21D;59019;47.638;18.966;2023-04-25T12:01:32;16.93;60.86
71254;HTU21D;59019;47.638;18.966;2023-04-25T12:04:13;16.93;62.66
71254;HTU21D;59019;47.638;18.966;2023-04-25T12:06:39;16.37;63.03
71254;HTU21D;59019;47.638;18.966;2023-04-25T12:09:08;16.10;63.40
71254;HTU21D;59019;47.638;18.966;2023-04-25T12:11:44;16.40;64.29
71254;HTU21D;59019;47.638;18.966;2023-04-25T12:14:11;16.93;62.46
71254;HTU21D;59019;47.638;18.966;2023-04-25T12:16:44;17.59;60.43
71254;HTU21D;59019;47.638;18.966;2023-04-25T12:19:14;18.27;59.03
71254;HTU21D;59019;47.638;18.966;2023-04-25T12:21:40;18.71;58.50
71254;HTU21D;59019;47.638;18.966;2023-04-25T12:24:17;19.17;55.68
71254;HTU21D;59019;47.638;18.966;2023-04-25T12:26:53;19.30;54.16
71254;HTU21D;59019;47.638;18.966;2023-04-25T12:29:22;19.69;52.74
71254;HTU21D;59019;47.638;18.966;2023-04-25T12:31:49;19.07;54.49
71254;HTU21D;59019;47.638;18.966;2023-04-25T12:34:14;19.50;54.71
71254;HTU21D;59019;47.638;18.966;2023-04-25T12:36:40;19.88;52.53
71254;HTU21D;59019;47.638;18.966;2023-04-25T12:39:06;19.61;52.63
71254;HTU21D;59019;47.638;18.966;2023-04-25T12:41:32;19.45;51.70
71254;HTU21D;59019;47.638;18.966;2023-04-25T12:43:58;19.87;50.32
71254;HTU21D;59019;47.638;18.966;2023-04-25T12:46:24;19.65;50.35
71254;HTU21D;59019;47.638;18.966;2023-04-25T12:48:49;20.25;51.62
71254;HTU21D;59019;47.638;18.966;2023-04-25T12:51:15;20.13;49.89
71254;HTU21D;59019;47.638;18.966;2023-04-25T12:53:41;20.29;50.20
71254;HTU21D;59019;47.638;18.966;2023-04-25T12:56:09;20.31;50.24
71254;HTU21D;59019;47.638;18.966;2023-04-25T12:58:35;20.33;49.85
71254;HTU21D;59019;47.638;18.966;2023-04-25T13:01:01;20.18;49.83
71254;HTU21D;59019;47.638;18.966;2023-04-25T13:03:26;20.13;49.38
71254;HTU21D;59019;47.638;18.966;2023-04-25T13:05:52;20.06;49.74
71254;HTU21D;59019;47.638;18.966;2023-04-25T13:08:18;20.07;50.24
71254;HTU21D;59019;47.638;18.966;2023-04-25T13:10:44;19.99;47.41
71254;HTU21D;59019;47.638;18.966;2023-04-25T13:13:09;19.97;47.86
71254;HTU21D;59019;47.638;18.966;2023-04-25T13:15:35;19.97;48.40
71254;HTU21D;59019;47.638;18.966;2023-04-25T13:18:20;19.91;47.89
71254;HTU21D;59019;47.638;18.966;2023-04-25T13:21:04;20.25;49.01
71254;HTU21D;59019;47.638;18.966;2023-04-25T13:23:30;20.55;47.84
71254;HTU21D;59019;47.638;18.966;2023-04-25T13:25:56;19.60;47.33
71254;HTU21D;59019;47.638;18.966;2023-04-25T13:28:27;19.80;48.24
71254;HTU21D;59019;47.638;18.966;2023-04-25T13:30:52;19.35;48.78
71254;HTU21D;59019;47.638;18.966;2023-04-25T13:33:18;18.68;48.87
71254;HTU21D;59019;47.638;18.966;2023-04-25T13:35:46;18.88;49.18
71254;HTU21D;59019;47.638;18.966;2023-04-25T13:38:15;18.24;48.40
71254;HTU21D;59019;47.638;18.966;2023-04-25T13:40:41;18.50;50.24
71254;HTU21D;59019;47.638;18.966;2023-04-25T13:43:06;18.70;47.93
71254;HTU21D;59019;47.638;18.966;2023-04-25T13:45:32;18.26;47.53
71254;HTU21D;59019;47.638;18.966;2023-04-25T13:47:58;18.44;48.76
71254;HTU21D;59019;47.638;18.966;2023-04-25T13:50:23;18.88;48.08
71254;HTU21D;59019;47.638;18.966;2023-04-25T13:52:49;19.00;48.63
71254;HTU21D;59019;47.638;18.966;2023-04-25T13:55:14;18.78;47.73
71254;HTU21D;59019;47.638;18.966;2023-04-25T13:57:41;18.79;47.99
71254;HTU21D;59019;47.638;18.966;2023-04-25T14:00:09;18.62;48.08
71254;HTU21D;59019;47.638;18.966;2023-04-25T14:02:36;18.17;48.73
71254;HTU21D;59019;47.638;18.966;2023-04-25T14:05:02;18.05;50.24
71254;HTU21D;59019;47.638;18.966;2023-04-25T14:07:28;17.80;50.93
71254;HTU21D;59019;47.638;18.966;2023-04-25T14:09:53;17.70;50.71
71254;HTU21D;59019;47.638;18.966;2023-04-25T14:12:19;17.76;50.49
71254;HTU21D;59019;47.638;18.966;2023-04-25T14:14:45;17.77;50.47
71254;HTU21D;59019;47.638;18.966;2023-04-25T14:17:12;17.47;51.37
71254;HTU21D;59019;47.638;18.966;2023-04-25T14:19:38;17.65;51.88
71254;HTU21D;59019;47.638;18.966;2023-04-25T14:22:08;17.89;51.88
71254;HTU21D;59019;47.638;18.966;2023-04-25T14:24:34;17.63;52.14
71254;HTU21D;59019;47.638;18.966;2023-04-25T14:27:00;17.51;51.50
71254;HTU21D;59019;47.638;18.966;2023-04-25T14:29:26;17.89;51.93
71254;HTU21D;59019;47.638;18.966;2023-04-25T14:31:51;18.15;50.62
71254;HTU21D;59019;47.638;18.966;2023-04-25T14:34:18;18.40;50.10
71254;HTU21D;59019;47.638;18.966;2023-04-25T14:36:44;18.25;49.55
71254;HTU21D;59019;47.638;18.966;2023-04-25T14:39:09;18.72;49.91
71254;HTU21D;59019;47.638;18.966;2023-04-25T14:41:35;19.05;49.45
71254;HTU21D;59019;47.638;18.966;2023-04-25T14:44:01;19.36;49.50
71254;HTU21D;59019;47.638;18.966;2023-04-25T14:46:26;19.41;48.82
71254;HTU21D;59019;47.638;18.966;2023-04-25T14:48:52;19.09;48.51
71254;HTU21D;59019;47.638;18.966;2023-04-25T14:51:18;19.27;48.78
71254;HTU21D;59019;47.638;18.966;2023-04-25T14:53:43;19.27;48.26
71254;HTU21D;59019;47.638;18.966;2023-04-25T14:56:09;19.15;49.21
71254;HTU21D;59019;47.638;18.966;2023-04-25T14:58:35;19.16;49.48
71254;HTU21D;59019;47.638;18.966;2023-04-25T15:01:01;19.36;48.80
71254;HTU21D;59019;47.638;18.966;2023-04-25T15:03:26;19.50;48.50
71254;HTU21D;59019;47.638;18.966;2023-04-25T15:05:55;19.32;48.51
71254;HTU21D;59019;47.638;18.966;2023-04-25T15:08:21;19.13;48.49
71254;HTU21D;59019;47.638;18.966;2023-04-25T15:10:46;19.05;47.88